createdAt,value
2019-01-21T00:00:57.401Z,69.57
2019-01-21T00:03:21.821Z,68.69
2019-01-21T00:05:46.236Z,68.41
2019-01-21T00:08:10.652Z,69.06
2019-01-21T00:10:35.166Z,69.15
2019-01-21T00:12:59.589Z,68.79
2019-01-21T00:15:24.188Z,68.17
2019-01-21T00:17:48.590Z,68.08
2019-01-21T00:20:13.141Z,67.83
2019-01-21T00:22:37.570Z,68.39
2019-01-21T00:25:01.980Z,68.07
2019-01-21T00:27:26.421Z,68.05
2019-01-21T00:29:50.834Z,67.75
2019-01-21T00:32:24.734Z,67.97
2019-01-21T00:34:49.158Z,68.75
2019-01-21T00:37:13.560Z,68.73
2019-01-21T00:39:38.007Z,70.20
2019-01-21T00:42:02.429Z,70.80
2019-01-21T00:44:26.867Z,70.57
2019-01-21T00:46:51.300Z,69.84
2019-01-21T00:49:15.732Z,68.94
2019-01-21T00:51:40.188Z,69.14
2019-01-21T00:54:04.575Z,70.49
2019-01-21T00:56:28.984Z,70.61
2019-01-21T00:58:53.407Z,69.66
2019-01-21T01:01:17.826Z,69.06
2019-01-21T01:03:42.226Z,69.08
2019-01-21T01:06:06.658Z,68.60
2019-01-21T01:08:31.084Z,68.18
2019-01-21T01:10:55.510Z,67.81
2019-01-21T01:13:19.928Z,67.63
2019-01-21T01:15:44.344Z,68.03
2019-01-21T01:18:08.752Z,68.34
2019-01-21T01:20:33.156Z,67.89
2019-01-21T01:22:57.577Z,67.56
2019-01-21T01:25:21.980Z,67.99
2019-01-21T01:27:46.458Z,68.09
2019-01-21T01:30:13.310Z,67.37
2019-01-21T01:32:37.896Z,67.77
2019-01-21T01:35:02.388Z,68.21
2019-01-21T01:37:26.813Z,67.66
2019-01-21T01:39:51.214Z,67.59
2019-01-21T01:42:15.624Z,67.27
2019-01-21T01:44:40.029Z,67.56
2019-01-21T01:47:04.568Z,67.36
2019-01-21T01:49:28.989Z,68.55
2019-01-21T01:51:53.383Z,68.14
2019-01-21T01:54:17.825Z,68.10
2019-01-21T01:56:42.296Z,67.51
2019-01-21T01:59:06.986Z,67.29
2019-01-21T02:01:31.386Z,67.40
2019-01-21T02:03:55.805Z,67.16
2019-01-21T02:06:20.208Z,67.17
2019-01-21T02:08:44.700Z,67.03
2019-01-21T02:11:09.179Z,67.09
2019-01-21T02:13:33.947Z,66.95
2019-01-21T02:15:58.367Z,66.83
2019-01-21T02:18:23.048Z,66.89
2019-01-21T02:20:50.555Z,66.89
2019-01-21T02:23:16.819Z,67.55
2019-01-21T02:25:47.258Z,67.15
2019-01-21T02:28:29.169Z,66.80
2019-01-21T02:31:05.549Z,66.87
2019-01-21T02:33:41.611Z,66.91
2019-01-21T02:36:09.105Z,66.78
2019-01-21T02:38:51.502Z,66.70
2019-01-21T02:41:25.006Z,66.63
2019-01-21T02:44:03.648Z,66.69
2019-01-21T02:46:37.072Z,66.57
2019-01-21T02:49:10.195Z,66.80
2019-01-21T02:51:49.691Z,67.77
2019-01-21T02:54:17.139Z,68.38
2019-01-21T02:57:01.275Z,67.71
2019-01-21T02:59:51.169Z,67.25
2019-01-21T03:02:36.157Z,66.92
2019-01-21T03:05:14.841Z,66.81
2019-01-21T03:08:07.365Z,68.15
2019-01-21T03:10:37.548Z,68.26
2019-01-21T03:13:05.013Z,68.45
2019-01-21T03:15:35.149Z,70.02
2019-01-21T03:18:14.430Z,71.12
2019-01-21T03:20:58.167Z,70.94
2019-01-21T03:23:31.337Z,70.04
2019-01-21T03:26:15.132Z,69.72
2019-01-21T03:29:17.357Z,69.23
2019-01-21T03:31:59.721Z,70.35
2019-01-21T03:34:27.151Z,70.25
2019-01-21T03:37:09.232Z,71.58
2019-01-21T03:39:45.697Z,70.65
2019-01-21T03:42:19.247Z,71.16
2019-01-21T03:45:10.809Z,70.35
2019-01-21T03:47:38.246Z,69.92
2019-01-21T03:50:37.059Z,69.85
2019-01-21T03:53:10.092Z,70.79
2019-01-21T03:55:34.934Z,69.30
2019-01-21T03:58:08.077Z,68.32
2019-01-21T04:00:35.537Z,67.81
2019-01-21T04:03:03.014Z,69.60
2019-01-21T04:05:39.053Z,69.78
2019-01-21T04:08:15.047Z,69.59
2019-01-21T04:11:11.063Z,69.81
2019-01-21T04:14:12.422Z,70.88
2019-01-21T04:17:02.485Z,70.69
2019-01-21T04:19:44.687Z,69.73
2019-01-21T04:22:12.131Z,69.86
2019-01-21T04:24:42.556Z,69.45
2019-01-21T04:27:15.714Z,68.85
2019-01-21T04:29:57.876Z,69.54
2019-01-21T04:32:30.858Z,68.89
2019-01-21T04:35:03.795Z,70.30
2019-01-21T04:37:34.460Z,70.80
2019-01-21T04:40:02.355Z,69.13
2019-01-21T04:43:02.513Z,68.72
2019-01-21T04:45:38.775Z,68.59
2019-01-21T04:48:32.976Z,70.19
2019-01-21T04:51:08.162Z,71.14
2019-01-21T04:53:44.496Z,70.60
2019-01-21T04:56:20.911Z,70.59
2019-01-21T04:58:48.365Z,69.59
2019-01-21T05:01:18.506Z,70.04
2019-01-21T05:04:06.850Z,70.35
2019-01-21T05:07:04.205Z,69.65
2019-01-21T05:09:55.760Z,68.93
2019-01-21T05:12:34.947Z,68.58
2019-01-21T05:15:17.155Z,68.85
2019-01-21T05:17:59.323Z,69.13
2019-01-21T05:20:55.186Z,69.34
2019-01-21T05:23:42.071Z,69.68
2019-01-21T05:26:12.168Z,69.86
2019-01-21T05:28:42.237Z,68.90
2019-01-21T05:31:21.076Z,68.98
2019-01-21T05:34:16.933Z,70.19
2019-01-21T05:37:03.423Z,69.25
2019-01-21T05:39:39.678Z,69.97
2019-01-21T05:42:23.706Z,69.91
2019-01-21T05:44:57.064Z,69.31
2019-01-21T05:47:33.431Z,70.08
2019-01-21T05:50:32.087Z,69.34
2019-01-21T05:53:02.535Z,68.14
2019-01-21T05:55:56.786Z,67.68
2019-01-21T05:58:26.922Z,67.97
2019-01-21T06:01:15.336Z,68.59
2019-01-21T06:03:51.650Z,68.69
2019-01-21T06:06:24.750Z,70.51
2019-01-21T06:08:58.106Z,71.95
2019-01-21T06:11:34.289Z,71.37
2019-01-21T06:14:04.630Z,71.77
2019-01-21T06:16:40.806Z,71.71
2019-01-21T06:19:33.793Z,71.05
2019-01-21T06:22:01.286Z,72.06
2019-01-21T06:24:28.743Z,71.04
2019-01-21T06:27:20.194Z,69.96
2019-01-21T06:30:13.038Z,69.71
2019-01-21T06:32:59.717Z,68.67
2019-01-21T06:35:48.213Z,69.43
2019-01-21T06:38:24.557Z,69.81
2019-01-21T06:41:00.683Z,68.86
2019-01-21T06:43:30.951Z,69.19
2019-01-21T06:46:04.096Z,68.74
2019-01-21T06:48:52.519Z,69.65
2019-01-21T06:51:19.980Z,69.68
2019-01-21T06:53:53.192Z,68.51
2019-01-21T06:56:23.430Z,68.90
2019-01-21T06:59:02.503Z,67.98
2019-01-21T07:01:38.775Z,68.51
2019-01-21T07:04:27.062Z,67.97
2019-01-21T07:07:16.793Z,67.55
2019-01-21T07:09:58.999Z,67.60
2019-01-21T07:12:44.489Z,68.73
2019-01-21T07:15:26.947Z,68.44
2019-01-21T07:18:12.391Z,69.04
2019-01-21T07:20:42.839Z,69.21
2019-01-21T07:23:19.016Z,68.59
2019-01-21T07:25:52.387Z,68.06
2019-01-21T07:28:25.510Z,68.85
2019-01-21T07:31:12.561Z,69.17
2019-01-21T07:33:40.016Z,68.33
2019-01-21T07:36:22.317Z,69.81
2019-01-21T07:38:52.375Z,69.78
2019-01-21T07:41:28.695Z,70.50
2019-01-21T07:43:58.849Z,69.08
2019-01-21T07:46:35.010Z,69.38
2019-01-21T07:49:26.494Z,70.59
2019-01-21T07:52:20.285Z,70.63
2019-01-21T07:54:53.553Z,71.17
2019-01-21T07:57:45.975Z,70.71
2019-01-21T08:00:31.151Z,70.98
2019-01-21T08:03:01.659Z,70.72
2019-01-21T08:05:50.024Z,70.07
2019-01-21T08:08:35.112Z,69.88
2019-01-21T08:11:05.365Z,68.49
2019-01-21T08:13:41.448Z,67.95
2019-01-21T08:16:11.595Z,68.33
2019-01-21T08:18:55.619Z,69.79
2019-01-21T08:21:43.901Z,69.90
2019-01-21T08:24:13.898Z,68.84
2019-01-21T08:26:41.360Z,68.77
2019-01-21T08:29:14.629Z,68.29
2019-01-21T08:31:59.953Z,67.29
2019-01-21T08:34:50.128Z,67.57
2019-01-21T08:37:23.657Z,68.20
2019-01-21T08:39:56.785Z,68.78
2019-01-21T08:42:33.160Z,68.75
2019-01-21T08:45:03.259Z,69.39
2019-01-21T08:47:39.338Z,69.23
2019-01-21T08:50:18.706Z,70.27
2019-01-21T08:52:51.705Z,68.86
2019-01-21T08:55:21.963Z,69.09
2019-01-21T08:57:52.048Z,69.72
2019-01-21T09:00:52.266Z,69.03
2019-01-21T09:03:22.684Z,68.87
2019-01-21T09:05:54.563Z,70.52
2019-01-21T09:08:41.335Z,69.49
2019-01-21T09:13:55.906Z,70.22
2019-01-21T09:16:41.110Z,70.44
2019-01-21T09:22:23.473Z,70.13
2019-01-21T09:25:26.516Z,69.71
2019-01-21T09:28:11.714Z,69.96
2019-01-21T09:31:14.791Z,69.28
2019-01-21T09:42:51.629Z,69.93
2019-01-21T09:45:28.122Z,69.96
2019-01-21T09:47:51.387Z,68.83
2019-01-21T09:50:26.906Z,69.11
2019-01-21T09:55:31.155Z,69.44
2019-01-21T10:00:52.591Z,70.10
2019-01-21T10:03:17.350Z,69.58
2019-01-21T10:14:52.826Z,68.36
2019-01-21T10:17:55.880Z,69.13
2019-01-21T10:20:51.308Z,69.35
2019-01-21T10:23:54.317Z,68.55
2019-01-21T10:26:57.326Z,68.90
2019-01-21T10:30:00.361Z,68.58
2019-01-21T10:32:45.583Z,68.25
2019-01-21T10:38:45.749Z,67.54
2019-01-21T10:47:25.105Z,66.69
2019-01-21T10:50:28.135Z,65.86
2019-01-21T10:53:13.395Z,65.18
2019-01-21T11:05:07.595Z,63.03
2019-01-21T11:11:07.870Z,59.77
2019-01-21T11:20:04.605Z,57.87
2019-01-21T11:22:42.124Z,58.63
2019-01-21T11:25:45.084Z,57.65
2019-01-21T11:28:48.113Z,56.82
2019-01-21T11:31:52.994Z,55.66
2019-01-21T11:37:53.050Z,51.30
2019-01-21T11:49:47.359Z,46.29
2019-01-21T11:58:44.024Z,42.74
2019-01-21T12:04:26.209Z,40.61
2019-01-21T12:13:42.761Z,39.59
2019-01-21T12:16:45.813Z,40.05
2019-01-21T12:22:45.655Z,38.02
2019-01-21T12:28:45.838Z,37.54
2019-01-21T12:31:48.871Z,35.90
2019-01-21T12:34:52.078Z,38.70
2019-01-21T12:46:27.801Z,40.28
2019-01-21T12:49:16.066Z,38.27
2019-01-21T12:52:01.349Z,38.08
2019-01-21T12:58:01.584Z,43.35
2019-01-21T13:06:58.793Z,44.59
2019-01-21T13:12:58.512Z,35.43
2019-01-21T13:21:54.827Z,42.88
2019-01-21T13:27:54.161Z,44.86
2019-01-21T13:33:53.627Z,46.32
2019-01-21T13:36:48.898Z,42.49
2019-01-21T13:39:51.920Z,35.68
2019-01-21T13:48:31.648Z,43.79
2019-01-21T13:54:14.183Z,47.52
2019-01-21T14:00:06.223Z,45.48
2019-01-21T14:09:03.565Z,45.12
2019-01-21T14:12:06.546Z,47.57
2019-01-21T14:18:06.891Z,53.33
2019-01-21T14:21:11.164Z,54.47
2019-01-21T14:33:04.380Z,54.85
2019-01-21T14:36:07.408Z,55.82
2019-01-21T14:42:07.394Z,55.07
2019-01-21T14:56:57.332Z,55.04
2019-01-21T15:05:54.111Z,55.57
2019-01-21T15:17:48.331Z,55.49
2019-01-21T15:23:48.316Z,55.19
2019-01-21T15:32:44.608Z,56.38
2019-01-21T15:41:41.465Z,56.29
2019-01-21T15:50:38.083Z,57.29
2019-01-21T15:53:41.116Z,56.81
2019-01-21T16:05:35.349Z,59.56
2019-01-21T16:08:20.577Z,58.86
2019-01-21T16:11:23.614Z,59.32
2019-01-21T16:14:08.850Z,59.24
2019-01-21T16:23:05.998Z,60.03
2019-01-21T16:31:44.271Z,60.30
2019-01-21T16:34:47.290Z,60.52
2019-01-21T16:40:47.507Z,60.36
2019-01-21T16:43:11.965Z,60.18
2019-01-21T16:45:36.375Z,59.68
2019-01-21T16:48:00.833Z,60.21
2019-01-21T16:50:25.249Z,59.66
2019-01-21T16:52:49.664Z,60.02
2019-01-21T16:55:14.197Z,59.68
2019-01-21T16:57:59.403Z,59.19
2019-01-21T17:00:23.810Z,60.21
2019-01-21T17:02:48.240Z,60.14
2019-01-21T17:08:09.215Z,59.55
2019-01-21T17:10:39.166Z,60.50
2019-01-21T17:13:05.191Z,60.51
2019-01-21T17:15:29.631Z,60.58
2019-01-21T17:17:54.036Z,60.86
2019-01-21T17:20:39.273Z,62.01
2019-01-21T17:23:03.703Z,61.24
2019-01-21T17:25:28.187Z,61.20
2019-01-21T17:27:52.638Z,61.47
2019-01-21T17:30:37.838Z,61.36
2019-01-21T17:33:02.269Z,61.65
2019-01-21T17:35:26.696Z,60.88
2019-01-21T17:37:51.152Z,60.96
2019-01-21T17:43:12.683Z,61.64
2019-01-21T17:45:37.098Z,62.00
2019-01-21T17:48:01.648Z,62.00
2019-01-21T17:50:26.097Z,62.12
2019-01-21T17:52:50.527Z,62.75
2019-01-21T17:55:15.371Z,61.98
2019-01-21T17:57:39.788Z,61.34
2019-01-21T18:00:24.997Z,60.97
2019-01-21T18:02:49.413Z,61.94
2019-01-21T18:05:13.950Z,61.30
2019-01-21T18:07:38.514Z,60.88
2019-01-21T18:10:02.993Z,60.78
2019-01-21T18:12:27.415Z,61.26
2019-01-21T18:14:51.868Z,60.81
2019-01-21T18:17:37.060Z,61.15
2019-01-21T18:20:01.484Z,61.17
2019-01-21T18:22:25.888Z,61.48
2019-01-21T18:24:50.331Z,61.70
2019-01-21T18:27:14.724Z,61.17
2019-01-21T18:32:14.952Z,61.25
2019-01-21T18:34:39.349Z,61.68
2019-01-21T18:37:04.027Z,60.80
2019-01-21T18:39:28.459Z,60.25
2019-01-21T18:44:29.458Z,59.97
2019-01-21T18:46:53.930Z,58.76
2019-01-21T18:49:22.818Z,60.15
2019-01-21T18:51:50.152Z,59.29
2019-01-21T18:54:14.564Z,60.44
2019-01-21T18:56:38.980Z,59.93
2019-01-21T18:59:03.392Z,59.78
2019-01-21T19:01:27.800Z,60.44
2019-01-21T19:03:52.248Z,60.61
2019-01-21T19:06:16.647Z,59.98
2019-01-21T19:08:41.208Z,60.39
2019-01-21T19:11:05.632Z,60.29
2019-01-21T19:13:30.059Z,59.91
2019-01-21T19:15:54.537Z,60.46
2019-01-21T19:18:19.012Z,59.95
2019-01-21T19:20:43.523Z,60.65
2019-01-21T19:23:07.977Z,61.17
2019-01-21T19:25:32.478Z,61.13
2019-01-21T19:30:32.794Z,61.39
2019-01-21T19:32:57.288Z,61.02
2019-01-21T19:38:18.368Z,60.99
2019-01-21T19:40:42.849Z,59.99
2019-01-21T19:43:07.262Z,59.98
2019-01-21T19:45:31.741Z,60.67
2019-01-21T19:47:56.170Z,60.92
2019-01-21T19:53:17.786Z,61.69
2019-01-21T19:58:38.713Z,60.89
2019-01-21T20:01:03.141Z,60.98
2019-01-21T20:03:27.564Z,60.39
2019-01-21T20:05:52.033Z,61.10
2019-01-21T20:08:16.542Z,60.24
2019-01-21T20:14:14.413Z,60.70
2019-01-21T20:16:38.940Z,61.08
2019-01-21T20:19:03.380Z,61.43
2019-01-21T20:21:27.804Z,61.63
2019-01-21T20:23:52.271Z,61.54
2019-01-21T20:26:16.690Z,61.08
2019-01-21T20:28:41.129Z,61.01
2019-01-21T20:31:05.556Z,60.69
2019-01-21T20:33:29.993Z,60.59
2019-01-21T20:35:54.416Z,60.88
2019-01-21T20:38:18.834Z,61.07
2019-01-21T20:40:43.261Z,60.83
2019-01-21T20:43:07.677Z,60.32
2019-01-21T20:45:32.193Z,59.35
2019-01-21T20:47:56.667Z,60.76
2019-01-21T20:53:17.616Z,60.15
2019-01-21T20:55:42.065Z,60.21
2019-01-21T20:58:06.461Z,59.68
2019-01-21T21:00:51.663Z,58.90
2019-01-21T21:03:16.070Z,58.15
2019-01-21T21:05:40.554Z,58.70
2019-01-21T21:08:05.099Z,58.86
2019-01-21T21:13:08.881Z,59.08
2019-01-21T21:18:30.891Z,59.48
2019-01-21T21:20:55.322Z,60.42
2019-01-21T21:23:19.780Z,58.98
2019-01-21T21:25:49.501Z,59.00
2019-01-21T21:28:13.925Z,59.31
2019-01-21T21:30:38.409Z,58.76
2019-01-21T21:33:03.250Z,58.67
2019-01-21T21:35:27.826Z,58.47
2019-01-21T21:37:52.398Z,58.73
2019-01-21T21:40:37.588Z,58.76
2019-01-21T21:43:02.150Z,58.83
2019-01-21T21:45:27.905Z,59.15
2019-01-21T21:48:02.876Z,59.32
2019-01-21T21:53:24.101Z,60.01
2019-01-21T21:55:48.512Z,59.78
2019-01-21T21:58:13.041Z,59.83
2019-01-21T22:00:37.687Z,59.60
2019-01-21T22:03:02.190Z,59.71
2019-01-21T22:05:26.698Z,58.88
2019-01-21T22:07:51.227Z,58.21
2019-01-21T22:10:36.452Z,58.77
2019-01-21T22:13:00.938Z,57.93
2019-01-21T22:18:22.045Z,58.37
2019-01-21T22:20:46.493Z,58.87
2019-01-21T22:23:10.918Z,58.35
2019-01-21T22:25:35.369Z,58.53
2019-01-21T22:27:59.787Z,58.98
2019-01-21T22:33:20.999Z,58.96
2019-01-21T22:35:45.404Z,58.62
2019-01-21T22:38:22.362Z,58.54
2019-01-21T22:40:46.800Z,58.81
2019-01-21T22:43:11.207Z,59.39
2019-01-21T22:45:36.040Z,59.21
2019-01-21T22:48:00.476Z,59.84
2019-01-21T22:50:24.871Z,59.02
2019-01-21T22:52:49.287Z,59.26
2019-01-21T22:55:26.107Z,60.22
2019-01-21T22:57:50.570Z,59.45
2019-01-21T23:06:08.408Z,59.33
2019-01-21T23:08:32.825Z,58.83
2019-01-21T23:10:57.302Z,58.46
2019-01-21T23:13:21.741Z,58.35
2019-01-21T23:15:46.149Z,58.41
2019-01-21T23:18:10.658Z,58.48
2019-01-21T23:20:48.696Z,58.83
2019-01-21T23:23:13.168Z,59.44
2019-01-21T23:25:37.591Z,59.37
2019-01-21T23:28:02.027Z,59.32
2019-01-21T23:30:26.506Z,60.51
2019-01-21T23:32:50.994Z,60.76
2019-01-21T23:35:15.499Z,60.17
2019-01-21T23:37:39.894Z,60.93
2019-01-21T23:43:01.957Z,60.89
2019-01-21T23:45:26.372Z,60.92
2019-01-21T23:47:50.786Z,60.80
2019-01-21T23:53:12.127Z,60.96
2019-01-21T23:55:36.576Z,61.26
2019-01-21T23:58:00.986Z,60.93
